Time;durP1;ratioP1;P1;durP2;ratioP2;P2;SDS_P1;SDS_P2;PMS_P1;PMS_P2;Temp;Humidity;BMP_temperature;BMP_pressure;BME280_temperature;BME280_humidity;BME280_pressure;Samples;Min_cycle;Max_cycle;Signal;HPM_P1;HPM_P2
2021/04/12 00:01:18;;;;;;;15.10;7.50;;;;;;;12.43;47.98;100073.78;4267129;33;34091;-88
2021/04/12 00:04:26;;;;;;;11.07;6.57;;;;;;;12.71;47.11;100076.28;4256300;33;32942;-88
2021/04/12 00:07:12;;;;;;;11.38;6.07;;;;;;;12.53;47.61;100073.75;4249442;33;35504;-89
2021/04/12 00:10:06;;;;;;;11.50;6.35;;;;;;;12.59;47.35;100068.50;4265725;33;33528;-89
2021/04/12 00:12:48;;;;;;;14.05;5.78;;;;;;;12.46;47.55;100061.59;4266678;33;34095;-88
2021/04/12 00:16:04;;;;;;;9.57;5.80;;;;;;;12.57;47.46;100069.41;4257837;33;33951;-89
2021/04/12 00:18:41;;;;;;;12.77;6.03;;;;;;;12.61;47.21;100061.53;4266518;33;34126;-89
2021/04/12 00:21:15;;;;;;;9.95;5.95;;;;;;;12.74;47.17;100070.19;4278636;33;33736;-89
2021/04/12 00:23:45;;;;;;;13.25;6.10;;;;;;;12.79;46.90;100066.66;4255149;33;32988;-89
2021/04/12 00:26:28;;;;;;;12.45;6.07;;;;;;;12.87;46.74;100058.81;4245116;33;33507;-89
2021/04/12 00:29:03;;;;;;;14.25;6.60;;;;;;;12.93;46.59;100055.31;4255264;33;33545;-89
2021/04/12 00:31:39;;;;;;;10.63;6.37;;;;;;;12.89;46.81;100050.09;4255056;33;34002;-89
2021/04/12 00:34:19;;;;;;;10.73;6.57;;;;;;;13.11;46.28;100047.37;4254625;33;33643;-88
2021/04/12 00:36:54;;;;;;;8.38;5.35;;;;;;;13.16;46.14;100046.47;4255165;33;32922;-89
2021/04/12 00:39:56;;;;;;;12.75;7.35;;;;;;;13.11;46.28;100042.16;4255033;33;34413;-89
2021/04/12 00:42:39;;;;;;;10.57;6.45;;;;;;;13.16;46.23;100036.03;4254863;33;33193;-89
2021/04/12 00:45:28;;;;;;;11.15;5.85;;;;;;;13.20;46.10;100039.47;4266434;33;32740;-89
2021/04/12 00:48:11;;;;;;;12.00;6.22;;;;;;;13.17;46.23;100039.53;4255265;33;32710;-88
2021/04/12 00:50:51;;;;;;;9.52;6.43;;;;;;;13.15;46.29;100049.09;4278709;33;34279;-89
2021/04/12 00:53:59;;;;;;;13.20;6.50;;;;;;;13.15;46.24;100041.25;4255031;33;33982;-89
2021/04/12 00:56:35;;;;;;;13.43;5.47;;;;;;;13.12;46.26;100038.69;4266636;33;33254;-89
2021/04/12 00:59:16;;;;;;;11.80;6.05;;;;;;;12.87;46.87;100036.19;4266570;33;33249;-89
2021/04/12 01:01:54;;;;;;;17.45;6.82;;;;;;;12.91;46.98;100043.13;4266602;33;33950;-89
2021/04/12 01:04:34;;;;;;;10.45;5.47;;;;;;;13.00;46.65;100046.56;4255042;33;33383;-90
2021/04/12 01:07:26;;;;;;;11.68;6.22;;;;;;;13.25;46.12;100035.09;4278520;33;34784;-90
2021/04/12 01:10:17;;;;;;;9.60;5.87;;;;;;;12.79;47.08;100024.91;4247959;33;33210;-89
2021/04/12 01:13:13;;;;;;;13.13;6.43;;;;;;;12.08;49.01;100032.16;4266552;33;34765;-89
2021/04/12 01:16:05;;;;;;;10.38;6.05;;;;;;;12.46;47.98;100039.84;4266308;33;34143;-89
2021/04/12 01:18:58;;;;;;;9.57;5.95;;;;;;;12.55;47.61;100034.63;4278270;33;32331;-89
2021/04/12 01:21:54;;;;;;;13.07;6.53;;;;;;;12.52;47.62;100038.09;4254840;33;34386;-89
2021/04/12 01:24:57;;;;;;;12.07;6.00;;;;;;;12.63;47.34;100030.22;4265734;33;34978;-89
2021/04/12 01:28:05;;;;;;;13.65;6.35;;;;;;;12.59;47.49;100037.22;4262916;33;33364;-89
2021/04/12 01:30:57;;;;;;;16.00;6.90;;;;;;;12.54;47.59;100033.75;4266316;33;32951;-89
2021/04/12 01:33:50;;;;;;;8.70;4.95;;;;;;;12.73;47.14;100035.41;4266229;33;34188;-89
2021/04/12 01:36:42;;;;;;;12.23;5.97;;;;;;;12.57;47.58;100025.03;4266387;33;34189;-89
2021/04/12 01:39:41;;;;;;;10.35;5.45;;;;;;;12.44;47.97;100019.00;4254704;33;32888;-89
2021/04/12 01:42:24;;;;;;;10.10;5.68;;;;;;;12.54;47.79;100014.59;4266358;33;33116;-89
2021/04/12 01:45:15;;;;;;;13.95;6.95;;;;;;;12.27;48.60;100012.97;4254282;33;33510;-89
2021/04/12 01:48:05;;;;;;;13.57;6.32;;;;;;;11.81;49.93;100012.25;4266542;33;33784;-89
2021/04/12 01:50:55;;;;;;;9.00;6.03;;;;;;;12.05;49.23;100011.34;4278214;33;33958;-88
2021/04/12 01:53:31;;;;;;;12.10;6.85;;;;;;;12.14;48.86;100011.31;4265746;33;33941;-88
2021/04/12 01:56:04;;;;;;;10.13;5.95;;;;;;;12.31;48.36;100014.72;4243128;33;33546;-89
2021/04/12 01:58:53;;;;;;;11.10;6.07;;;;;;;12.17;48.64;100012.12;4254183;33;34993;-89
2021/04/12 02:01:39;;;;;;;10.32;6.53;;;;;;;12.23;48.51;100013.87;4277465;33;33612;-89
2021/04/12 02:04:29;;;;;;;11.02;6.43;;;;;;;12.08;49.01;100012.19;4242546;33;33686;-89
2021/04/12 02:07:12;;;;;;;11.23;6.43;;;;;;;12.27;48.42;100007.75;4253803;33;33993;-88
2021/04/12 02:09:52;;;;;;;11.88;7.00;;;;;;;12.29;48.30;100010.37;4254298;33;33463;-89
2021/04/12 02:12:37;;;;;;;13.75;6.72;;;;;;;12.29;48.33;100000.78;4254392;33;33811;-88
2021/04/12 02:15:11;;;;;;;9.20;5.55;;;;;;;12.27;48.41;100002.53;4265434;33;33715;-89
2021/04/12 02:18:01;;;;;;;11.25;5.85;;;;;;;12.19;48.56;100004.34;4265190;33;33231;-88
2021/04/12 02:20:56;;;;;;;13.30;7.05;;;;;;;12.28;48.32;99999.06;4277376;33;33925;-88
2021/04/12 02:23:35;;;;;;;12.65;6.87;;;;;;;12.15;48.67;100005.19;4241962;33;32576;-88
2021/04/12 02:26:12;;;;;;;15.80;6.87;;;;;;;12.17;48.70;99996.50;4265552;33;32935;-88
2021/04/12 02:29:05;;;;;;;10.50;6.18;;;;;;;11.86;49.40;99994.84;4265558;33;34740;-89
2021/04/12 02:31:45;;;;;;;11.00;6.10;;;;;;;11.89;49.22;99976.59;4265814;33;33981;-89
2021/04/12 02:34:22;;;;;;;12.93;6.57;;;;;;;11.91;49.09;99987.03;4277490;33;34238;-89
2021/04/12 02:36:58;;;;;;;15.48;7.35;;;;;;;11.73;49.52;99987.06;4265906;33;32698;-89
2021/04/12 02:39:45;;;;;;;12.50;6.32;;;;;;;11.75;49.45;99986.19;4255592;33;33274;-89
2021/04/12 02:42:43;;;;;;;9.35;6.20;;;;;;;11.83;49.37;99984.44;4279152;33;34033;-89
2021/04/12 02:45:37;;;;;;;9.40;6.30;;;;;;;11.92;49.14;99978.34;4241942;33;34634;-89
2021/04/12 02:48:26;;;;;;;9.65;6.47;;;;;;;11.83;49.37;99986.19;4267438;33;32848;-89
2021/04/12 02:51:06;;;;;;;11.23;6.12;;;;;;;11.80;49.54;99983.56;4267353;33;33726;-89
2021/04/12 02:53:55;;;;;;;10.13;6.30;;;;;;;11.69;49.94;99987.94;4267246;33;34163;-89
2021/04/12 02:57:09;;;;;;;13.55;6.78;;;;;;;11.50;50.60;99980.09;4255486;33;34320;-89
2021/04/12 03:00:11;;;;;;;13.82;7.12;;;;;;;11.36;50.95;99981.84;4247703;33;33718;-89
2021/04/12 03:02:57;;;;;;;9.70;6.43;;;;;;;11.33;50.97;99973.19;4255680;33;34222;-89
2021/04/12 03:05:24;;;;;;;14.73;6.55;;;;;;;11.39;50.67;99974.06;4255629;33;35152;-89
2021/04/12 03:08:04;;;;;;;10.38;6.43;;;;;;;11.41;50.59;99969.72;4255861;33;34406;-89
2021/04/12 03:10:45;;;;;;;11.40;7.03;;;;;;;11.54;50.38;99971.44;4267131;33;32845;-89
2021/04/12 03:13:34;;;;;;;;;;;;;;;11.50;50.34;99979.25;4255874;33;32857;-89
2021/04/12 03:16:09;;;;;;;13.38;6.28;;;;;;;11.40;50.64;99972.31;4267356;33;34044;-89
2021/04/12 03:18:54;;;;;;;11.45;6.70;;;;;;;11.37;50.84;99962.78;4279039;33;34148;-89
2021/04/12 03:21:58;;;;;;;13.93;6.37;;;;;;;11.32;50.98;99969.72;4279496;33;33758;-89
2021/04/12 03:24:30;;;;;;;15.27;7.50;;;;;;;11.40;50.80;99969.72;4256052;33;33541;-88
2021/04/12 03:27:20;;;;;;;11.45;6.93;;;;;;;11.46;50.66;99973.19;4266849;33;34914;-89
2021/04/12 03:30:11;;;;;;;12.27;7.25;;;;;;;11.52;50.54;99983.59;4267649;33;35294;-89
2021/04/12 03:32:45;;;;;;;11.60;6.70;;;;;;;11.24;51.35;99984.50;4243877;33;33072;-89
2021/04/12 03:35:32;;;;;;;12.63;7.50;;;;;;;11.50;50.61;99974.91;4267704;33;33298;-89
2021/04/12 03:38:20;;;;;;;10.88;7.03;;;;;;;11.08;51.94;99976.69;4267298;33;33891;-89
2021/04/12 03:41:11;;;;;;;16.65;7.72;;;;;;;11.36;51.13;99975.81;4278740;33;33696;-89
2021/04/12 03:44:03;;;;;;;12.90;7.47;;;;;;;11.10;51.91;99983.59;4267273;33;32791;-89
2021/04/12 03:47:19;;;;;;;13.20;7.20;;;;;;;11.02;52.18;99974.06;4255850;33;33836;-89
2021/04/12 03:50:06;;;;;;;11.93;7.22;;;;;;;11.08;52.06;99982.72;4216341;33;33744;-90
2021/04/12 03:52:40;;;;;;;16.52;7.35;;;;;;;11.14;51.82;99985.34;4255204;33;33043;-89
2021/04/12 03:55:40;;;;;;;14.10;6.95;;;;;;;11.29;51.24;99985.34;4267218;33;33403;-89
2021/04/12 03:58:28;;;;;;;12.00;7.47;;;;;;;11.09;52.05;99987.09;4267239;33;33257;-89
2021/04/12 04:01:17;;;;;;;14.73;7.35;;;;;;;11.20;51.33;99977.53;4267027;33;33656;-89
2021/04/12 04:04:08;;;;;;;13.18;8.23;;;;;;;11.07;51.73;99977.53;4279620;33;34151;-89
2021/04/12 04:07:03;;;;;;;12.98;7.50;;;;;;;11.06;51.91;99976.66;4267147;33;32462;-89
2021/04/12 04:09:59;;;;;;;15.10;9.60;;;;;;;10.88;52.60;99972.31;4267193;33;33245;-89
2021/04/12 04:13:06;;;;;;;15.98;8.40;;;;;;;10.88;52.63;99976.66;4267524;33;33571;-90
2021/04/12 04:16:13;;;;;;;18.33;9.27;;;;;;;10.72;53.12;99983.53;4217952;33;34307;-90
2021/04/12 04:18:52;;;;;;;17.90;10.70;;;;;;;10.86;52.86;99988.81;4225135;33;32893;-89
2021/04/12 04:21:38;;;;;;;;;;;;;;;11.20;51.92;100006.16;4267783;33;32981;-89
2021/04/12 04:24:28;;;;;;;31.95;15.68;;;;;;;11.19;51.99;100001.84;4267073;33;36089;-89
2021/04/12 04:27:19;;;;;;;21.10;12.07;;;;;;;11.15;52.20;99997.47;4266713;33;33582;-89
2021/04/12 04:30:19;;;;;;;21.08;11.20;;;;;;;11.12;52.36;99988.81;4267013;33;33486;-89
2021/04/12 04:33:16;;;;;;;14.77;9.27;;;;;;;11.21;52.00;99975.81;4267176;33;34232;-89
2021/04/12 04:35:58;;;;;;;18.00;8.77;;;;;;;10.98;52.73;99983.63;4267063;33;33800;-89
2021/04/12 04:38:53;;;;;;;16.08;8.50;;;;;;;11.22;52.08;99975.78;4278505;33;34178;-89
2021/04/12 04:41:45;;;;;;;15.35;8.60;;;;;;;11.36;51.65;99992.28;4267220;33;32739;-89
2021/04/12 04:44:17;;;;;;;16.33;9.25;;;;;;;11.31;51.93;99993.16;4266959;33;33574;-89
2021/04/12 04:47:13;;;;;;;14.87;8.93;;;;;;;11.32;52.11;100000.97;4278962;33;35976;-89
2021/04/12 04:50:13;;;;;;;17.70;9.70;;;;;;;11.57;51.53;100005.31;4267308;33;33302;-89
2021/04/12 04:52:47;;;;;;;15.73;10.48;;;;;;;11.58;51.78;100004.44;4264978;33;34094;-90
2021/04/12 04:55:51;;;;;;;20.17;11.18;;;;;;;11.54;51.92;100000.09;4255253;33;34618;-89
2021/04/12 04:58:30;;;;;;;16.80;10.50;;;;;;;11.48;51.99;100007.91;4267352;33;33752;-89
2021/04/12 05:01:22;;;;;;;17.10;12.18;;;;;;;11.83;51.33;100009.63;4278810;33;33947;-90
2021/04/12 05:04:05;;;;;;;16.20;11.52;;;;;;;11.98;51.07;100004.41;4266912;33;32799;-90
2021/04/12 05:07:11;;;;;;;22.40;11.35;;;;;;;12.06;50.88;100000.88;4266611;33;33518;-90
2021/04/12 05:09:49;;;;;;;21.27;16.58;;;;;;;12.17;50.62;100006.94;4266697;33;33868;-89
2021/04/12 05:12:55;;;;;;;17.83;12.75;;;;;;;12.32;50.31;100016.44;4266946;33;33454;-90
2021/04/12 05:16:07;;;;;;;19.80;11.75;;;;;;;12.42;50.16;100018.16;4267038;33;33081;-89
2021/04/12 05:18:55;;;;;;;16.80;9.88;;;;;;;12.61;49.66;100025.00;4240685;33;33273;-89
2021/04/12 05:21:40;;;;;;;17.30;9.60;;;;;;;12.86;49.02;100020.50;4267265;33;35165;-89
2021/04/12 05:24:25;;;;;;;15.32;10.27;;;;;;;12.85;48.99;100026.63;4255040;33;33949;-89
2021/04/12 05:27:11;;;;;;;24.60;9.93;;;;;;;12.77;49.41;100021.44;4278554;33;32878;-89
2021/04/12 05:30:07;;;;;;;17.50;8.70;;;;;;;12.77;49.24;100018.84;4266422;33;34452;-89
2021/04/12 05:32:55;;;;;;;16.23;9.32;;;;;;;12.84;48.93;100017.91;4266599;33;33876;-89
2021/04/12 05:35:43;;;;;;;15.68;9.02;;;;;;;12.99;48.77;100016.97;4266348;33;33799;-89
2021/04/12 05:38:29;;;;;;;18.62;9.60;;;;;;;13.12;48.53;100007.34;4254419;33;33098;-89
2021/04/12 05:41:25;;;;;;;17.50;9.63;;;;;;;13.18;48.63;100012.50;4277915;33;34139;-89
2021/04/12 05:44:04;;;;;;;17.42;9.15;;;;;;;13.14;48.58;100006.47;4266514;33;33929;-90
2021/04/12 05:46:39;;;;;;;17.23;9.57;;;;;;;13.07;48.50;100006.50;4278527;33;33947;-89
2021/04/12 05:49:26;;;;;;;17.40;9.27;;;;;;;13.18;48.36;100013.37;4278634;33;33578;-89
2021/04/12 05:52:16;;;;;;;19.08;9.77;;;;;;;13.31;48.45;100014.16;4278315;33;34263;-89
2021/04/12 05:55:06;;;;;;;20.55;9.70;;;;;;;13.66;47.93;100009.50;4267318;33;33689;-89
2021/04/12 05:58:09;;;;;;;16.52;9.50;;;;;;;13.60;47.76;100014.75;4254524;33;33173;-87
2021/04/12 06:00:41;;;;;;;22.92;9.38;;;;;;;14.02;46.77;100014.38;4273321;33;34289;-88
2021/04/12 06:03:47;;;;;;;16.40;9.82;;;;;;;14.05;46.51;100016.06;4265248;33;33157;-90
2021/04/12 06:06:14;;;;;;;19.37;10.15;;;;;;;14.08;46.28;100011.69;4264356;33;34900;-89
2021/04/12 06:09:04;;;;;;;15.23;9.68;;;;;;;14.25;45.90;100016.72;4253773;33;33288;-89
2021/04/12 06:12:28;;;;;;;14.55;9.20;;;;;;;14.46;45.44;100013.00;4278995;33;33444;-88
2021/04/12 06:15:08;;;;;;;21.48;9.10;;;;;;;14.61;45.49;100007.56;4239355;33;32529;-89
2021/04/12 06:17:42;;;;;;;19.20;9.05;;;;;;;14.66;44.34;100006.66;4266824;33;33609;-89
2021/04/12 06:20:28;;;;;;;15.20;9.05;;;;;;;14.73;44.21;99997.81;4254932;33;33062;-89
2021/04/12 06:23:17;;;;;;;15.90;8.90;;;;;;;14.97;43.52;99996.59;4254774;33;32312;-88
2021/04/12 06:25:57;;;;;;;19.05;9.63;;;;;;;15.23;43.10;99985.72;4278333;33;34251;-90
2021/04/12 06:28:53;;;;;;;20.92;9.90;;;;;;;15.76;42.73;99984.84;4268374;33;34473;-89
2021/04/12 06:32:00;;;;;;;15.38;7.87;;;;;;;15.97;42.16;99994.94;4267666;33;33566;-91
2021/04/12 06:34:46;;;;;;;16.05;7.37;;;;;;;15.83;41.38;99992.53;4267283;33;32943;-90
2021/04/12 06:37:35;;;;;;;13.50;6.70;;;;;;;15.78;41.52;99981.28;4267351;33;33493;-85
2021/04/12 06:40:33;;;;;;;19.67;7.47;;;;;;;16.45;43.60;99995.72;4266202;33;34927;-87
2021/04/12 06:43:19;;;;;;;12.65;6.97;;;;;;;16.57;39.59;100001.59;4291486;33;33972;-87
2021/04/12 06:46:17;;;;;;;12.43;6.80;;;;;;;16.84;38.74;100002.75;4279554;33;33248;-87
2021/04/12 06:49:30;;;;;;;11.55;6.22;;;;;;;17.15;38.15;100005.53;4278642;33;33926;-87
2021/04/12 06:55:28;;;;;;;11.82;6.60;;;;;;;17.37;37.63;100004.16;4283199;33;34846;-88
2021/04/12 06:58:38;;;;;;;17.80;6.53;;;;;;;17.69;36.77;99991.06;4279526;33;34142;-87
2021/04/12 07:05:12;;;;;;;15.45;6.70;;;;;;;18.15;36.67;99996.84;4286955;33;35450;-85
2021/04/12 07:08:04;;;;;;;13.93;7.35;;;;;;;17.91;36.44;99997.50;4287014;33;34736;-84
2021/04/12 07:10:56;;;;;;;12.43;6.65;;;;;;;17.87;36.93;99998.50;4290202;33;33376;-85
2021/04/12 07:13:29;;;;;;;11.38;6.62;;;;;;;18.01;36.39;99996.34;4291491;33;33807;-85
2021/04/12 07:16:25;;;;;;;13.27;6.78;;;;;;;18.48;36.32;99994.19;4288759;33;35200;-86
2021/04/12 07:19:12;;;;;;;13.30;6.95;;;;;;;18.64;35.76;99988.41;4277376;33;34508;-85
2021/04/12 07:21:45;;;;;;;15.00;6.87;;;;;;;18.28;36.19;100003.47;4272763;33;32773;-85
2021/04/12 07:24:31;;;;;;;14.65;7.37;;;;;;;18.34;36.29;99997.19;4277434;33;33955;-85
2021/04/12 07:27:00;;;;;;;14.48;6.45;;;;;;;18.19;36.79;99995.84;4277827;33;34996;-88
2021/04/12 07:29:40;;;;;;;11.10;6.50;;;;;;;18.38;36.66;99992.69;4265721;33;33958;-89
2021/04/12 07:32:42;;;;;;;10.65;5.47;;;;;;;18.30;36.84;99984.16;4277640;33;33211;-87
2021/04/12 07:35:24;;;;;;;8.90;5.18;;;;;;;18.59;36.05;99977.13;4265240;33;34162;-85
2021/04/12 07:38:29;;;;;;;10.00;4.93;;;;;;;18.65;35.87;99981.38;4262706;33;34012;-85
2021/04/12 07:41:27;;;;;;;9.27;3.37;;;;;;;18.63;36.17;99977.94;4251092;33;33639;-86
2021/04/12 07:44:28;;;;;;;7.95;2.70;;;;;;;18.32;36.65;99977.94;4262894;33;33438;-85
2021/04/12 07:47:15;;;;;;;4.78;2.47;;;;;;;18.79;35.37;99987.97;4251212;33;33752;-85
2021/04/12 07:50:00;;;;;;;5.55;2.80;;;;;;;19.09;35.62;99978.22;4262657;33;35356;-86
2021/04/12 07:53:05;;;;;;;4.93;2.75;;;;;;;19.31;36.08;99979.25;4262469;33;34006;-84
2021/04/12 07:55:54;;;;;;;5.85;2.58;;;;;;;19.61;35.50;99987.09;4262625;33;33877;-86
2021/04/12 07:58:53;;;;;;;6.47;2.65;;;;;;;19.73;35.24;99981.41;4251967;33;33442;-84
2021/04/12 08:01:38;;;;;;;4.70;3.08;;;;;;;20.07;35.21;99976.66;4262751;33;35920;-86
2021/04/12 08:04:18;;;;;;;10.50;2.85;;;;;;;20.08;34.28;99984.53;4264000;33;34524;-87
2021/04/12 08:07:06;;;;;;;4.47;2.78;;;;;;;20.17;34.31;99989.47;4262740;33;33061;-87
2021/04/12 08:10:12;;;;;;;8.30;3.08;;;;;;;20.49;33.71;99990.12;4267060;33;34318;-87
2021/04/12 08:13:25;;;;;;;8.15;2.75;;;;;;;20.26;34.37;99988.31;4276919;33;34160;-86
2021/04/12 08:16:38;;;;;;;4.20;1.90;;;;;;;20.13;34.11;99981.72;4265392;33;33638;-87
2021/04/12 08:19:42;;;;;;;6.72;2.75;;;;;;;20.23;33.88;99983.13;4268820;33;33381;-86
2021/04/12 08:22:34;;;;;;;8.18;2.67;;;;;;;20.37;33.59;99991.44;4265741;33;33280;-87
2021/04/12 08:25:29;;;;;;;6.00;2.30;;;;;;;20.28;33.50;99986.47;4277188;33;33930;-88
2021/04/12 08:28:08;;;;;;;6.03;2.25;;;;;;;20.56;33.06;99992.44;4264816;33;34997;-86
2021/04/12 08:30:50;;;;;;;9.25;2.92;;;;;;;20.06;33.93;100001.34;4290195;33;33904;-86
2021/04/12 08:33:37;;;;;;;;;;;;;;;19.42;34.84;99992.97;4265410;33;35187;-86
2021/04/12 08:36:42;;;;;;;4.85;2.42;;;;;;;20.04;34.14;99982.06;4265171;33;34012;-85
2021/04/12 08:40:00;;;;;;;8.60;2.33;;;;;;;19.96;34.28;99989.38;4284048;33;34433;-86
2021/04/12 08:42:37;;;;;;;6.72;2.58;;;;;;;20.16;33.97;99992.16;4267773;33;35392;-87
2021/04/12 08:45:30;;;;;;;6.62;2.33;;;;;;;20.27;33.16;99987.41;4265520;33;33934;-86
2021/04/12 08:48:20;;;;;;;5.00;2.80;;;;;;;20.25;33.90;99981.31;4252199;33;34807;-86
2021/04/12 08:51:30;;;;;;;5.32;2.67;;;;;;;20.37;33.51;99986.16;4258873;33;33482;-86
2021/04/12 08:54:33;;;;;;;6.00;2.35;;;;;;;20.00;33.65;99983.06;4277287;33;34519;-86
2021/04/12 08:57:42;;;;;;;7.80;2.35;;;;;;;20.42;33.14;99973.62;4277577;33;34286;-85
2021/04/12 09:00:31;;;;;;;4.18;2.33;;;;;;;20.14;33.76;99967.59;4276746;33;35864;-85
2021/04/12 09:03:33;;;;;;;5.28;2.35;;;;;;;20.55;34.13;99961.69;4289563;33;35006;-85
2021/04/12 09:06:07;;;;;;;6.68;2.33;;;;;;;20.83;33.73;99962.31;4265330;33;33667;-85
2021/04/12 09:09:32;;;;;;;7.43;2.67;;;;;;;20.87;33.39;99956.00;4289551;33;35029;-85
2021/04/12 09:12:41;;;;;;;7.35;2.12;;;;;;;21.39;32.42;99948.63;4254742;33;34250;-87
2021/04/12 09:15:31;;;;;;;5.28;1.90;;;;;;;21.11;32.96;99942.75;4287197;33;34817;-86
2021/04/12 09:18:29;;;;;;;4.93;1.92;;;;;;;21.12;32.89;99941.81;4276620;33;32787;-86
2021/04/12 09:21:18;;;;;;;5.47;1.87;;;;;;;21.49;32.76;99942.88;4276263;33;33389;-86
2021/04/12 09:23:54;;;;;;;8.05;2.40;;;;;;;21.47;32.44;99941.22;4276544;33;35663;-86
2021/04/12 09:26:53;;;;;;;4.50;2.15;;;;;;;21.36;32.95;99928.47;4289250;33;34578;-85
2021/04/12 09:29:41;;;;;;;5.85;2.80;;;;;;;21.53;32.70;99930.38;4288233;33;33497;-85
2021/04/12 09:32:41;;;;;;;6.82;2.05;;;;;;;21.90;32.83;99934.97;4289467;33;34985;-86
2021/04/12 09:35:36;;;;;;;5.70;1.83;;;;;;;21.86;32.68;99928.09;4288712;33;34965;-85
2021/04/12 09:38:18;;;;;;;6.87;2.08;;;;;;;21.43;33.61;99923.75;4267298;33;33395;-85
2021/04/12 09:41:10;;;;;;;4.32;1.73;;;;;;;21.22;34.66;99929.94;4276075;33;33335;-85
2021/04/12 09:44:19;;;;;;;5.43;2.25;;;;;;;20.94;34.74;99924.91;4289359;33;35216;-82
2021/04/12 09:47:11;;;;;;;3.78;1.83;;;;;;;20.57;35.24;99928.12;4247201;33;34422;-88
2021/04/12 09:49:53;;;;;;;7.80;1.95;;;;;;;21.12;35.35;99924.19;4277577;33;33858;-85
2021/04/12 09:52:39;;;;;;;3.92;1.70;;;;;;;21.54;34.33;99913.56;4276473;33;33331;-84
2021/04/12 09:56:05;;;;;;;9.40;2.17;;;;;;;21.89;34.05;99907.66;4277027;33;35066;-84
2021/04/12 09:59:06;;;;;;;3.47;1.95;;;;;;;22.30;33.63;99910.22;4287560;33;34471;-84
2021/04/12 10:02:07;;;;;;;6.97;1.98;;;;;;;22.61;32.62;99902.56;4272422;33;34205;-84
2021/04/12 10:04:50;;;;;;;5.43;1.50;;;;;;;22.48;32.45;99896.97;4264270;33;32715;-84
2021/04/12 10:07:51;;;;;;;8.40;1.73;;;;;;;22.67;32.56;99899.63;4289040;33;34595;-84
2021/04/12 10:10:34;;;;;;;2.72;1.60;;;;;;;22.56;32.54;99891.31;4269023;33;34168;-85
2021/04/12 10:13:17;;;;;;;4.55;1.62;;;;;;;22.61;32.66;99891.94;4288707;33;34181;-85
2021/04/12 10:16:08;;;;;;;4.25;1.75;;;;;;;22.86;32.23;99887.19;4276070;33;32811;-86
2021/04/12 10:19:00;;;;;;;4.87;1.50;;;;;;;23.29;31.36;99878.84;4275696;33;35121;-84
2021/04/12 10:21:49;;;;;;;5.60;1.75;;;;;;;23.55;31.53;99883.69;4289332;33;35996;-83
2021/04/12 10:24:27;;;;;;;8.65;2.15;;;;;;;23.49;30.85;99883.12;4289391;33;35181;-84
2021/04/12 10:27:05;;;;;;;7.95;2.03;;;;;;;23.18;31.40;99870.53;4271283;33;33072;-84
2021/04/12 10:29:42;;;;;;;5.10;1.52;;;;;;;22.84;32.32;99874.00;4273759;33;35177;-85
2021/04/12 10:32:14;;;;;;;4.55;1.60;;;;;;;23.08;31.58;99871.97;4275192;33;34613;-85
2021/04/12 10:34:46;;;;;;;2.95;1.45;;;;;;;22.88;32.44;99864.97;4264288;33;34528;-84
2021/04/12 10:37:44;;;;;;;3.60;1.17;;;;;;;23.40;32.09;99863.25;4264842;33;33097;-85
2021/04/12 10:40:35;;;;;;;4.25;1.37;;;;;;;23.60;31.81;99866.66;4288465;33;33989;-85
2021/04/12 10:43:11;;;;;;;4.22;1.35;;;;;;;23.56;31.13;99852.69;4276396;33;34429;-85
2021/04/12 10:45:48;;;;;;;4.20;1.40;;;;;;;23.58;31.26;99856.97;4252276;33;35624;-85
2021/04/12 10:48:25;;;;;;;6.32;1.48;;;;;;;23.81;31.34;99855.78;4276084;33;34971;-84
2021/04/12 10:51:14;;;;;;;2.92;1.10;;;;;;;23.61;31.67;99855.94;4275832;33;34556;-84
2021/04/12 10:54:10;;;;;;;2.22;1.02;;;;;;;23.90;31.16;99849.09;4288007;33;34369;-84
2021/04/12 10:56:38;;;;;;;5.93;1.40;;;;;;;23.03;31.85;99858.06;4274728;33;33855;-84
2021/04/12 10:59:13;;;;;;;2.25;0.90;;;;;;;23.16;31.95;99860.94;4289293;33;33821;-85
2021/04/12 11:01:44;;;;;;;3.50;1.02;;;;;;;23.03;32.75;99850.09;4289903;33;34847;-86
2021/04/12 11:04:50;;;;;;;2.85;1.10;;;;;;;23.44;31.86;99846.22;4279250;33;34780;-85
2021/04/12 11:07:39;;;;;;;4.50;1.17;;;;;;;23.55;31.86;99854.50;4265627;33;34611;-85
2021/04/12 11:10:34;;;;;;;6.32;1.40;;;;;;;23.66;31.44;99842.44;4290527;33;33300;-85
2021/04/12 11:13:12;;;;;;;4.30;1.20;;;;;;;23.19;32.14;99848.37;4290599;33;33808;-85
2021/04/12 11:15:54;;;;;;;7.57;1.60;;;;;;;23.34;32.25;99836.97;4277427;33;34502;-85
2021/04/12 11:18:47;;;;;;;5.18;1.90;;;;;;;23.01;32.59;99836.03;4289752;33;34723;-84
2021/04/12 11:21:23;;;;;;;9.35;1.65;;;;;;;23.07;32.01;99835.75;4277121;33;34104;-85
2021/04/12 11:24:06;;;;;;;7.35;1.75;;;;;;;22.93;32.47;99838.22;4289082;33;33819;-84
2021/04/12 11:26:39;;;;;;;3.70;1.85;;;;;;;23.25;31.89;99831.31;4288848;33;34249;-85
2021/04/12 11:29:27;;;;;;;6.53;1.75;;;;;;;23.30;31.61;99843.38;4289200;33;35239;-85
2021/04/12 11:32:06;;;;;;;4.72;1.35;;;;;;;23.55;31.02;99833.25;4277553;33;33637;-86
2021/04/12 11:34:55;;;;;;;7.30;1.58;;;;;;;23.61;31.59;99840.03;4281465;33;35199;-86
2021/04/12 11:37:28;;;;;;;3.33;1.80;;;;;;;23.58;31.32;99833.06;4276383;33;34487;-85
2021/04/12 11:40:18;;;;;;;4.43;1.48;;;;;;;23.55;31.00;99835.03;4265264;33;33916;-85
2021/04/12 11:43:10;;;;;;;5.68;1.87;;;;;;;23.86;30.37;99824.50;4265418;33;34539;-84
2021/04/12 11:46:03;;;;;;;5.95;1.80;;;;;;;23.34;31.17;99815.72;4265063;33;34654;-84
2021/04/12 11:48:54;;;;;;;6.70;2.17;;;;;;;23.47;31.27;99826.63;4289809;33;35706;-85
2021/04/12 11:51:41;;;;;;;8.63;1.83;;;;;;;23.07;31.44;99814.50;4265123;33;33779;-85
2021/04/12 11:54:10;;;;;;;8.65;1.60;;;;;;;22.97;31.71;99815.91;4276941;33;34510;-86
2021/04/12 11:56:53;;;;;;;4.95;1.70;;;;;;;23.37;31.84;99809.44;4259360;33;33139;-85
2021/04/12 11:59:39;;;;;;;4.03;1.80;;;;;;;23.29;31.25;99806.31;4277158;33;35265;-85
2021/04/12 12:02:28;;;;;;;8.23;2.17;;;;;;;23.78;31.13;99801.94;4276876;33;35255;-85
2021/04/12 12:05:00;;;;;;;3.83;1.65;;;;;;;24.05;29.86;99803.13;4289030;33;33665;-85
2021/04/12 12:07:43;;;;;;;6.85;1.90;;;;;;;24.06;29.61;99805.72;4254080;33;33444;-85
2021/04/12 12:10:11;;;;;;;4.72;1.95;;;;;;;24.33;29.22;99803.31;4253415;33;33921;-85
2021/04/12 12:12:50;;;;;;;3.67;1.55;;;;;;;24.41;28.62;99814.41;4277018;33;33506;-85
2021/04/12 12:15:20;;;;;;;5.90;1.80;;;;;;;24.25;29.27;99818.81;4265396;33;32882;-85
2021/04/12 12:18:08;;;;;;;7.25;2.12;;;;;;;23.91;29.28;99806.53;4265637;33;35119;-85
2021/04/12 12:20:51;;;;;;;5.37;1.95;;;;;;;23.91;29.75;99806.53;4277431;33;34358;-85
2021/04/12 12:23:40;;;;;;;6.72;1.60;;;;;;;24.07;28.95;99806.56;4265196;33;35375;-85
2021/04/12 12:26:33;;;;;;;5.15;2.10;;;;;;;24.10;28.73;99807.25;4277086;33;33638;-84
2021/04/12 12:29:16;;;;;;;5.82;1.73;;;;;;;23.23;29.59;99802.19;4260238;33;33161;-85
2021/04/12 12:32:01;;;;;;;8.43;1.55;;;;;;;23.54;29.26;99798.81;4265293;33;35546;-85
2021/04/12 12:34:36;;;;;;;10.27;2.03;;;;;;;23.49;29.37;99804.34;4261770;33;34374;-85
2021/04/12 12:37:03;;;;;;;5.40;1.95;;;;;;;23.82;28.83;99792.91;4264983;33;32923;-86
2021/04/12 12:39:52;;;;;;;5.85;1.92;;;;;;;23.13;29.65;99792.97;4264999;33;34418;-85
2021/04/12 12:42:22;;;;;;;5.32;1.90;;;;;;;23.50;29.31;99789.28;4277344;33;34777;-85
2021/04/12 12:44:54;;;;;;;4.20;1.37;;;;;;;23.42;29.60;99789.69;4276820;33;35404;-85
2021/04/12 12:47:24;;;;;;;7.07;2.58;;;;;;;23.50;29.29;99790.16;4276777;33;32982;-86
2021/04/12 12:49:55;;;;;;;5.12;1.80;;;;;;;23.43;28.92;99785.25;4265042;33;34305;-87
2021/04/12 12:52:31;;;;;;;5.07;1.70;;;;;;;23.58;29.64;99786.25;4264857;33;34026;-86
2021/04/12 12:55:24;;;;;;;3.78;1.60;;;;;;;24.08;28.39;99776.41;4265251;33;34786;-85
2021/04/12 12:57:53;;;;;;;6.60;2.08;;;;;;;24.25;28.34;99784.28;4277046;33;34558;-85
2021/04/12 13:00:34;;;;;;;4.70;1.50;;;;;;;24.21;28.80;99772.97;4277298;33;34364;-86
2021/04/12 13:03:14;;;;;;;4.80;1.70;;;;;;;24.02;28.59;99776.72;4265568;33;34164;-86
2021/04/12 13:05:43;;;;;;;5.82;1.73;;;;;;;23.92;29.00;99775.50;4265399;33;33885;-85
2021/04/12 13:08:21;;;;;;;4.47;1.48;;;;;;;24.07;28.76;99769.38;4276992;33;33601;-85
2021/04/12 13:10:49;;;;;;;6.15;2.33;;;;;;;23.88;28.29;99768.66;4265563;33;35114;-85